Time;durP1;ratioP1;P1;durP2;ratioP2;P2;SDS_P1;SDS_P2;PMS_P1;PMS_P2;Temp;Humidity;BMP_temperature;BMP_pressure;BME280_temperature;BME280_humidity;BME280_pressure;Samples;Min_cycle;Max_cycle;Signal;HPM_P1;HPM_P2
2022/06/16 00:00:14;;;;;;;4.65;3.20;;;;;;;20.13;62.73;101492.03;5018672;28;102553;-88
2022/06/16 00:02:43;;;;;;;4.75;2.90;;;;;;;20.14;62.69;101487.31;5030791;28;102519;-88
2022/06/16 00:05:12;;;;;;;3.77;2.80;;;;;;;20.14;62.71;101492.84;5036167;27;104006;-88
2022/06/16 00:07:41;;;;;;;4.47;3.10;;;;;;;20.14;62.90;101490.06;5028505;28;102454;-88
2022/06/16 00:10:10;;;;;;;5.22;2.72;;;;;;;20.14;62.83;101487.31;5020607;27;102090;-88
2022/06/16 00:12:38;;;;;;;4.00;3.10;;;;;;;20.13;62.55;101492.03;5020056;28;102175;-88
2022/06/16 00:15:07;;;;;;;4.55;3.05;;;;;;;20.12;62.69;101490.41;5016805;28;103860;-88
2022/06/16 00:17:33;;;;;;;;;;;;;;;20.12;62.58;101501.44;5020146;28;101870;-87
2022/06/16 00:20:04;;;;;;;3.92;2.47;;;;;;;20.11;62.70;101490.69;5018555;28;102302;-88
2022/06/16 00:22:33;;;;;;;3.65;2.50;;;;;;;20.12;62.92;101495.09;5022555;28;102037;-88
2022/06/16 00:25:00;;;;;;;3.95;3.08;;;;;;;20.12;62.81;101495.09;5018426;28;103904;-88
2022/06/16 00:27:28;;;;;;;4.40;2.97;;;;;;;20.11;63.02;101491.50;5024878;27;102286;-88
2022/06/16 00:29:55;;;;;;;3.30;2.60;;;;;;;20.12;62.71;101490.41;5019605;28;102126;-88
2022/06/16 00:32:22;;;;;;;4.13;2.92;;;;;;;20.11;62.98;101487.94;5029432;27;102765;-88
2022/06/16 00:34:48;;;;;;;6.07;2.88;;;;;;;20.12;62.74;101489.56;5018611;28;104143;-88
2022/06/16 00:37:16;;;;;;;3.15;2.60;;;;;;;20.12;62.87;101489.56;5018720;28;102548;-88
2022/06/16 00:39:43;;;;;;;4.60;2.92;;;;;;;20.12;62.51;101489.56;5018518;28;102126;-88
2022/06/16 00:42:15;;;;;;;6.13;2.70;;;;;;;20.11;63.01;101488.75;5017945;28;102392;-88
2022/06/16 00:44:45;;;;;;;4.30;3.10;;;;;;;20.11;62.53;101483.22;5035603;27;104182;-87
2022/06/16 00:47:12;;;;;;;2.83;2.50;;;;;;;20.12;62.79;101495.09;5028300;28;102329;-87
2022/06/16 00:49:43;;;;;;;2.95;2.58;;;;;;;20.11;62.82;101488.75;5030320;27;102001;-87
2022/06/16 00:52:13;;;;;;;4.55;2.65;;;;;;;20.10;62.82;101487.13;5019021;28;102327;-87
2022/06/16 00:54:42;;;;;;;3.72;2.80;;;;;;;20.11;62.73;101487.94;5017856;28;104375;-87
2022/06/16 00:57:14;;;;;;;3.75;2.65;;;;;;;20.11;62.95;101494.28;5021433;28;102100;-87
2022/06/16 00:59:43;;;;;;;2.78;2.20;;;;;;;20.10;62.91;101492.66;5026273;27;102031;-87
2022/06/16 01:02:10;;;;;;;4.78;2.40;;;;;;;20.10;62.89;101492.66;5026380;28;104123;-87
2022/06/16 01:04:53;;;;;;;3.28;2.65;;;;;;;20.09;62.57;101482.75;5024989;27;104172;-87
2022/06/16 01:07:27;;;;;;;3.45;2.60;;;;;;;20.10;63.09;101491.84;5023707;28;102185;-87
2022/06/16 01:09:55;;;;;;;3.05;2.30;;;;;;;20.11;62.84;101493.47;5024654;27;102012;-87
2022/06/16 01:15:53;;;;;;;4.63;2.80;;;;;;;20.10;63.02;101491.84;5026146;27;108361;-87
2022/06/16 01:18:27;;;;;;;2.78;2.20;;;;;;;20.09;62.70;101484.69;5019168;27;102331;-88
2022/06/16 01:21:01;;;;;;;3.45;2.40;;;;;;;20.08;62.98;101483.03;5017206;28;102636;-88
2022/06/16 01:24:05;;;;;;;4.05;2.92;;;;;;;20.09;62.87;101487.47;5019194;28;102076;-88
2022/06/16 01:26:58;;;;;;;4.05;2.47;;;;;;;20.08;62.70;101488.56;5025570;27;103893;-88
2022/06/16 01:29:34;;;;;;;4.82;2.38;;;;;;;20.08;62.69;101480.28;5010187;27;102312;-88
2022/06/16 01:32:08;;;;;;;3.05;2.30;;;;;;;20.09;62.70;101484.69;5018712;28;104704;-88
2022/06/16 01:34:50;;;;;;;2.95;2.35;;;;;;;20.08;63.04;101472.00;5018448;28;102289;-87
2022/06/16 01:37:28;;;;;;;2.75;2.10;;;;;;;20.08;62.94;101467.28;5019669;27;107294;-87
2022/06/16 01:40:07;;;;;;;3.30;2.30;;;;;;;20.08;62.72;101469.22;5037988;27;102019;-87
2022/06/16 01:42:39;;;;;;;2.47;2.28;;;;;;;20.08;62.88;101469.22;5023651;27;102483;-87
2022/06/16 01:45:15;;;;;;;3.92;2.15;;;;;;;20.08;62.88;101477.50;5018040;28;102491;-87
2022/06/16 01:47:48;;;;;;;3.38;2.33;;;;;;;20.09;62.79;101479.97;5021916;28;103913;-87
2022/06/16 01:50:20;;;;;;;2.60;2.20;;;;;;;20.08;63.04;101477.50;5017407;28;102155;-87
2022/06/16 01:52:52;;;;;;;2.88;2.10;;;;;;;20.08;63.05;101477.50;5017312;28;102190;-87
2022/06/16 01:55:25;;;;;;;3.50;2.10;;;;;;;20.08;62.86;101477.50;5019237;28;102250;-87
2022/06/16 01:57:59;;;;;;;2.75;2.10;;;;;;;20.08;62.90;101474.75;5017084;28;103918;-87
2022/06/16 02:00:28;;;;;;;4.20;2.50;;;;;;;20.07;63.08;101473.13;5025229;28;102429;-87
2022/06/16 02:03:02;;;;;;;2.85;2.25;;;;;;;20.07;63.19;101479.47;5037749;27;102272;-87
2022/06/16 02:05:38;;;;;;;3.15;2.10;;;;;;;20.07;62.82;101484.19;5038048;27;102183;-87
2022/06/16 02:08:16;;;;;;;2.80;2.30;;;;;;;20.07;63.23;101482.22;5027803;27;104241;-87
2022/06/16 02:10:45;;;;;;;5.15;2.20;;;;;;;20.08;63.21;101472.00;5016803;28;102948;-87
2022/06/16 02:13:16;;;;;;;2.33;2.00;;;;;;;20.08;63.10;101483.03;5017190;28;101975;-87
2022/06/16 02:15:51;;;;;;;2.80;2.00;;;;;;;20.09;63.22;101479.16;5020780;28;102149;-87
2022/06/16 02:18:24;;;;;;;3.77;2.23;;;;;;;20.08;63.18;101483.03;5024348;27;108276;-87
2022/06/16 02:20:55;;;;;;;3.97;2.08;;;;;;;20.08;63.35;101494.09;5036776;27;102574;-87
2022/06/16 02:23:22;;;;;;;2.95;2.20;;;;;;;20.07;63.29;101486.94;5028910;27;102669;-87
2022/06/16 02:25:52;;;;;;;3.08;2.10;;;;;;;20.08;63.21;101499.63;5017710;28;102401;-88
2022/06/16 02:28:23;;;;;;;2.38;1.92;;;;;;;20.08;63.30;101497.66;5020094;28;103987;-88
2022/06/16 02:31:05;;;;;;;5.68;2.08;;;;;;;20.08;63.48;101496.84;5017777;28;103006;-87
2022/06/16 02:33:40;;;;;;;2.72;2.05;;;;;;;20.07;63.28;101509.06;5022164;28;102368;-87
2022/06/16 02:36:20;;;;;;;2.40;2.15;;;;;;;20.08;63.32;101511.47;5035231;27;102290;-87
2022/06/16 02:39:02;;;;;;;2.63;1.85;;;;;;;20.08;63.13;101500.44;5038956;27;104036;-87
2022/06/16 02:41:40;;;;;;;2.42;1.98;;;;;;;20.08;63.27;101507.91;5039443;27;102284;-87
2022/06/16 02:44:17;;;;;;;2.05;1.85;;;;;;;20.08;63.29;101507.91;5020724;28;102568;-87
2022/06/16 02:46:56;;;;;;;2.70;2.22;;;;;;;20.09;63.18;101501.28;5040550;27;101978;-87
2022/06/16 02:49:31;;;;;;;2.65;1.70;;;;;;;20.10;62.99;101502.91;5019415;28;103937;-87
2022/06/16 02:52:09;;;;;;;3.35;1.98;;;;;;;20.10;63.61;101513.94;5020486;28;102435;-87
2022/06/16 02:54:44;;;;;;;3.13;2.30;;;;;;;20.10;63.47;101509.22;5026697;27;101883;-87
2022/06/16 02:57:13;;;;;;;3.47;2.13;;;;;;;20.11;63.74;101515.56;5041154;27;102448;-87
2022/06/16 02:59:44;;;;;;;2.35;2.05;;;;;;;20.10;63.98;101508.41;5039014;27;104304;-87
2022/06/16 03:02:17;;;;;;;2.80;1.77;;;;;;;20.10;64.43;101497.38;5030146;27;102386;-87
2022/06/16 03:04:46;;;;;;;6.30;2.38;;;;;;;20.09;64.73;101491.03;5028262;27;102058;-87
2022/06/16 03:07:15;;;;;;;2.58;1.90;;;;;;;20.10;64.56;101505.66;5027835;27;102334;-87
2022/06/16 03:09:42;;;;;;;2.80;2.10;;;;;;;20.11;64.98;101499.00;5036701;27;104012;-87
2022/06/16 03:12:10;;;;;;;3.22;1.92;;;;;;;20.10;65.01;101491.84;5044227;27;102364;-87
2022/06/16 03:14:37;;;;;;;3.13;2.33;;;;;;;20.11;65.20;101487.94;5043432;27;102302;-87
2022/06/16 03:17:06;;;;;;;2.65;2.25;;;;;;;20.10;65.64;101489.06;5044870;27;102235;-87
2022/06/16 03:19:35;;;;;;;3.08;2.28;;;;;;;20.10;66.16;101489.06;5043342;27;103154;-88
2022/06/16 03:22:02;;;;;;;3.15;2.00;;;;;;;20.10;65.90;101487.13;5043278;27;102125;-88
2022/06/16 03:24:29;;;;;;;2.92;2.17;;;;;;;20.12;66.06;101495.09;5044154;27;102194;-88
2022/06/16 03:26:56;;;;;;;2.88;1.75;;;;;;;20.12;65.95;101495.09;5041364;27;102109;-89
2022/06/16 03:29:22;;;;;;;3.55;2.13;;;;;;;20.13;66.13;101491.22;5034886;27;104402;-88
2022/06/16 03:31:49;;;;;;;2.15;1.92;;;;;;;20.13;66.28;101491.22;5027320;27;101940;-88
2022/06/16 03:34:16;;;;;;;3.38;2.08;;;;;;;20.13;66.27;101489.25;5027068;28;101951;-87
2022/06/16 03:36:44;;;;;;;3.22;1.83;;;;;;;20.14;65.58;101495.59;5022275;28;102905;-87
2022/06/16 03:39:12;;;;;;;2.47;2.20;;;;;;;20.14;66.35;101487.31;5027770;28;104049;-88
2022/06/16 03:41:38;;;;;;;3.03;2.20;;;;;;;20.15;66.28;101497.22;5047498;27;102643;-88
2022/06/16 03:44:05;;;;;;;2.63;1.90;;;;;;;20.14;66.28;101487.31;5025418;28;102403;-88
2022/06/16 03:46:33;;;;;;;3.05;2.10;;;;;;;20.14;66.26;101490.88;5033053;27;102238;-88
2022/06/16 03:48:59;;;;;;;2.30;2.00;;;;;;;20.14;66.23;101488.13;5049547;27;103840;-88
2022/06/16 03:51:27;;;;;;;2.88;2.30;;;;;;;20.16;66.10;101490.59;5038666;27;102245;-88
2022/06/16 03:53:55;;;;;;;2.65;2.08;;;;;;;20.15;66.33;101491.69;5038688;27;102425;-87
2022/06/16 03:56:21;;;;;;;2.07;1.87;;;;;;;20.15;66.20;101494.47;5040549;27;102480;-87
2022/06/16 03:58:51;;;;;;;2.80;2.05;;;;;;;20.14;66.52;101490.06;5038635;27;103993;-87
2022/06/16 04:01:18;;;;;;;3.40;2.03;;;;;;;20.14;66.00;101495.59;5039300;27;102696;-88
2022/06/16 04:04:01;;;;;;;3.22;2.03;;;;;;;20.14;66.29;101492.84;5039691;27;102454;-87
2022/06/16 04:06:35;;;;;;;2.63;1.52;;;;;;;20.15;66.27;101499.97;5039051;27;102322;-87
2022/06/16 04:09:04;;;;;;;3.13;1.85;;;;;;;20.15;66.53;101499.97;5028716;27;104175;-87
2022/06/16 04:11:32;;;;;;;3.10;2.15;;;;;;;20.14;66.47;101498.38;5019545;28;101941;-88
2022/06/16 04:14:02;;;;;;;3.75;2.03;;;;;;;20.15;66.55;101494.47;5038444;27;101991;-87
2022/06/16 04:16:33;;;;;;;2.47;2.08;;;;;;;20.14;66.26;101503.88;5029073;27;102069;-88
2022/06/16 04:19:00;;;;;;;3.05;2.00;;;;;;;20.15;66.59;101505.50;5030742;28;103917;-88
2022/06/16 04:21:28;;;;;;;2.65;2.13;;;;;;;20.14;66.25;101503.88;5038776;27;102343;-88
2022/06/16 04:23:56;;;;;;;2.63;1.90;;;;;;;20.15;66.29;101505.50;5054873;27;102040;-88
2022/06/16 04:26:24;;;;;;;2.30;2.05;;;;;;;20.14;66.28;101510.22;5040497;27;102275;-87
2022/06/16 04:28:51;;;;;;;3.00;2.00;;;;;;;20.14;65.97;101510.22;5038612;27;104000;-88
2022/06/16 04:31:22;;;;;;;2.22;1.88;;;;;;;20.13;66.28;101519.66;5027573;27;102437;-88
2022/06/16 04:33:49;;;;;;;3.42;2.40;;;;;;;20.14;66.47;101520.47;5027033;28;102118;-88
2022/06/16 04:36:16;;;;;;;3.05;2.20;;;;;;;20.13;66.66;101508.59;5019660;28;102613;-88
2022/06/16 04:38:44;;;;;;;2.63;1.80;;;;;;;20.13;66.46;101518.84;5018127;28;104476;-88
2022/06/16 04:41:14;;;;;;;3.20;2.30;;;;;;;20.12;66.21;101512.50;5020841;28;102443;-88
2022/06/16 04:43:45;;;;;;;3.90;2.17;;;;;;;20.13;66.41;101525.19;5019932;28;102420;-88
2022/06/16 04:46:13;;;;;;;3.90;2.07;;;;;;;20.12;66.43;101518.03;5027851;27;102365;-87
2022/06/16 04:48:40;;;;;;;;;;;;;;;20.13;66.46;101527.13;5018436;28;103902;-87
2022/06/16 04:51:08;;;;;;;3.58;2.35;;;;;;;20.13;66.11;101529.91;5018486;28;102490;-87
2022/06/16 04:53:35;;;;;;;4.13;2.10;;;;;;;20.13;66.17;101532.66;5018657;28;102387;-87
2022/06/16 04:56:04;;;;;;;2.35;2.15;;;;;;;20.14;65.88;101531.53;5019178;28;102164;-87
2022/06/16 04:58:31;;;;;;;2.35;2.13;;;;;;;20.15;66.24;101530.38;5036518;27;103880;-87
2022/06/16 05:00:59;;;;;;;2.83;1.90;;;;;;;20.17;65.99;101530.91;5027909;27;103781;-87
2022/06/16 05:03:27;;;;;;;2.47;2.00;;;;;;;20.17;65.76;101528.94;5034332;27;102022;-87
2022/06/16 05:05:55;;;;;;;2.85;1.95;;;;;;;20.18;65.72;101532.50;5025194;28;102426;-87
2022/06/16 05:08:26;;;;;;;3.45;2.15;;;;;;;20.20;66.14;101530.25;5029028;27;104487;-87
2022/06/16 05:10:53;;;;;;;2.13;1.83;;;;;;;20.20;66.33;101526.69;5022212;27;102003;-87
2022/06/16 05:13:20;;;;;;;2.33;1.90;;;;;;;20.20;66.28;101519.22;5017680;28;102128;-87
2022/06/16 05:15:47;;;;;;;2.25;1.92;;;;;;;20.20;66.15;101523.94;5019201;28;102338;-88
2022/06/16 05:18:16;;;;;;;12.13;2.30;;;;;;;20.21;66.03;101523.59;5024426;27;103959;-88
2022/06/16 05:20:43;;;;;;;3.50;1.80;;;;;;;20.21;66.26;101533.84;5017853;28;102617;-88
2022/06/16 05:23:10;;;;;;;3.53;2.03;;;;;;;20.21;66.06;101529.13;5023774;28;102758;-87
2022/06/16 05:25:37;;;;;;;3.08;1.83;;;;;;;20.21;66.06;101534.66;5021990;28;102572;-88
2022/06/16 05:28:05;;;;;;;3.50;1.98;;;;;;;20.21;66.14;101537.41;5030930;27;104009;-87
2022/06/16 05:30:31;;;;;;;3.22;2.10;;;;;;;20.21;66.42;101531.88;5017687;28;102444;-87
2022/06/16 05:32:58;;;;;;;2.33;1.92;;;;;;;20.23;65.96;101535.16;5027829;28;102388;-87
2022/06/16 05:35:26;;;;;;;11.98;2.20;;;;;;;20.23;66.49;101539.84;5024201;27;102209;-87
2022/06/16 05:37:54;;;;;;;10.23;2.10;;;;;;;20.24;66.50;101539.56;5023036;27;104059;-87
2022/06/16 05:40:20;;;;;;;8.15;2.28;;;;;;;20.24;66.45;101531.25;5025194;28;102336;-87
2022/06/16 05:42:47;;;;;;;5.28;2.08;;;;;;;20.25;66.51;101540.38;5021628;28;102166;-87
2022/06/16 05:45:14;;;;;;;8.98;2.22;;;;;;;20.24;66.32;101536.78;5029500;28;102233;-89
2022/06/16 05:47:40;;;;;;;4.10;2.20;;;;;;;20.25;66.33;101543.94;5019501;28;103864;-87
2022/06/16 05:50:09;;;;;;;3.17;2.03;;;;;;;20.24;66.40;101541.50;5028486;27;102168;-87
2022/06/16 05:52:37;;;;;;;3.38;1.95;;;;;;;20.24;66.56;101552.56;5026928;27;103668;-87
2022/06/16 05:55:04;;;;;;;3.20;1.97;;;;;;;20.24;66.44;101544.28;5029866;27;102211;-87
2022/06/16 05:57:31;;;;;;;3.80;2.03;;;;;;;20.22;66.60;101549.28;5022359;28;103916;-87
2022/06/16 05:59:58;;;;;;;2.10;1.90;;;;;;;20.22;66.58;101550.09;5034947;27;102164;-87
2022/06/16 06:02:25;;;;;;;2.67;2.20;;;;;;;20.23;66.76;101550.91;5027582;27;102368;-87
2022/06/16 06:04:51;;;;;;;3.28;2.17;;;;;;;20.22;66.35;101552.03;5029986;28;102226;-87
2022/06/16 06:07:22;;;;;;;4.93;1.85;;;;;;;20.21;66.65;101554.00;5035598;27;103897;-87
2022/06/16 06:18:16;;;;;;;3.88;1.90;;;;;;;20.22;66.38;101561.16;5030766;27;103834;-87
2022/06/16 06:20:44;;;;;;;3.45;1.70;;;;;;;20.22;66.47;101555.63;5017875;28;102361;-87
2022/06/16 06:23:10;;;;;;;2.63;1.90;;;;;;;20.23;66.58;101564.72;5016973;28;102225;-87
2022/06/16 06:25:39;;;;;;;2.25;1.88;;;;;;;20.21;66.58;101556.75;5018619;28;102411;-87
2022/06/16 06:28:06;;;;;;;2.92;1.95;;;;;;;20.21;66.18;101562.28;5017566;28;103998;-87
2022/06/16 06:30:34;;;;;;;2.03;1.83;;;;;;;20.22;66.64;101558.38;5018233;28;102489;-87
2022/06/16 06:33:02;;;;;;;2.13;1.88;;;;;;;20.21;66.48;101554.00;5020879;28;102359;-87
2022/06/16 06:35:28;;;;;;;3.85;1.88;;;;;;;20.22;66.50;101554.81;5037532;27;102212;-87
2022/06/16 06:37:55;;;;;;;2.55;1.88;;;;;;;20.22;66.48;101561.16;5026775;28;104303;-87
2022/06/16 06:40:26;;;;;;;1.90;1.70;;;;;;;20.22;66.57;101558.38;4956486;22;104322;-86
2022/06/16 06:42:54;;;;;;;2.40;1.90;;;;;;;20.22;66.47;101555.63;4983581;22;102254;-54
2022/06/16 06:45:21;;;;;;;5.47;1.75;;;;;;;20.21;66.56;101554.00;5016209;22;102944;-54
2022/06/16 06:47:48;;;;;;;2.83;2.10;;;;;;;20.22;66.59;101555.63;5011594;28;104193;-53
2022/06/16 06:50:20;;;;;;;2.95;2.10;;;;;;;20.22;66.11;101555.63;5001105;28;102667;-52
2022/06/16 06:52:47;;;;;;;2.70;1.83;;;;;;;20.22;66.57;101554.81;5004095;28;102149;-52
2022/06/16 06:55:14;;;;;;;12.80;2.22;;;;;;;20.22;66.38;101550.09;5010807;28;102115;-52
2022/06/16 06:57:41;;;;;;;3.72;1.90;;;;;;;20.21;66.42;101559.53;5010862;28;103933;-52
2022/06/16 07:00:11;;;;;;;5.40;1.90;;;;;;;20.22;66.65;101557.56;5002181;28;102091;-52
2022/06/16 07:02:38;;;;;;;2.13;1.60;;;;;;;20.22;66.62;101555.63;5005249;28;102305;-52
2022/06/16 07:05:06;;;;;;;2.28;1.80;;;;;;;20.21;66.51;101554.00;5011165;28;102809;-52
2022/06/16 07:07:34;;;;;;;2.30;1.98;;;;;;;20.23;66.16;101557.28;5005008;28;103651;-52
2022/06/16 07:10:01;;;;;;;2.55;1.80;;;;;;;20.23;66.66;101559.19;4998930;28;102292;-52
2022/06/16 07:12:28;;;;;;;1.92;1.80;;;;;;;20.23;66.65;101556.44;5004026;28;102074;-52
2022/06/16 07:14:55;;;;;;;2.20;1.60;;;;;;;20.23;66.44;101554.50;5013306;28;102604;-52
2022/06/16 07:17:24;;;;;;;2.33;1.63;;;;;;;20.23;66.23;101557.28;4998614;28;103857;-52
2022/06/16 07:19:51;;;;;;;2.15;1.85;;;;;;;20.23;66.56;101559.19;5004728;28;102336;-52
2022/06/16 07:22:19;;;;;;;2.78;1.80;;;;;;;20.23;66.41;101562.81;5005966;28;102498;-52
2022/06/16 07:24:48;;;;;;;2.17;1.97;;;;;;;20.22;66.47;101561.16;5021069;28;102485;-52
2022/06/16 07:27:16;;;;;;;2.80;1.90;;;;;;;20.23;66.67;101556.44;5003537;28;103893;-52
2022/06/16 07:29:43;;;;;;;1.63;1.52;;;;;;;20.25;66.20;101555.00;5002048;28;102265;-52
2022/06/16 07:32:09;;;;;;;2.75;1.77;;;;;;;20.24;66.26;101553.38;5000682;28;102093;-52
2022/06/16 07:34:38;;;;;;;4.50;1.98;;;;;;;20.30;66.02;101556.78;5019070;28;102353;-52
2022/06/16 07:37:04;;;;;;;2.13;1.45;;;;;;;20.31;66.32;101559.25;5013489;28;103913;-52
2022/06/16 07:39:31;;;;;;;1.90;1.70;;;;;;;20.32;66.21;101552.59;5003824;28;102571;-52
2022/06/16 07:42:08;;;;;;;1.83;1.60;;;;;;;20.37;66.05;101563.50;5000415;28;102318;-52
2022/06/16 07:44:36;;;;;;;2.58;1.75;;;;;;;20.38;65.79;101559.63;4995535;28;102117;-52
2022/06/16 07:47:04;;;;;;;3.10;2.00;;;;;;;20.39;65.60;101550.19;4992905;28;104028;-52
2022/06/16 07:49:32;;;;;;;2.50;1.80;;;;;;;20.42;65.81;101548.75;4983167;28;102442;-52
2022/06/16 07:52:00;;;;;;;3.27;1.77;;;;;;;20.45;65.67;101552.81;4982729;28;102223;-52
2022/06/16 07:54:28;;;;;;;3.17;1.67;;;;;;;20.44;65.51;101549.22;4989382;28;102749;-52
2022/06/16 07:56:54;;;;;;;3.67;1.70;;;;;;;20.45;65.88;101553.66;4986687;28;104822;-52
2022/06/16 07:59:21;;;;;;;1.85;1.63;;;;;;;20.47;65.58;101550.56;4987803;28;102108;-52
2022/06/16 08:01:47;;;;;;;1.75;1.60;;;;;;;20.47;65.99;101547.78;4996303;28;102038;-52
2022/06/16 08:04:15;;;;;;;3.05;1.60;;;;;;;20.46;65.93;101548.94;4996370;28;102587;-52
2022/06/16 08:06:42;;;;;;;2.17;1.70;;;;;;;20.46;65.62;101546.16;4988316;28;104093;-52
2022/06/16 08:09:11;;;;;;;2.90;1.63;;;;;;;20.46;66.02;101548.94;4984134;28;102145;-52
2022/06/16 08:14:24;;;;;;;3.08;1.60;;;;;;;20.45;65.54;101552.81;4986913;28;102438;-52
2022/06/16 08:16:50;;;;;;;3.55;1.80;;;;;;;20.42;66.43;101553.47;4977721;28;104099;-52
2022/06/16 08:19:17;;;;;;;1.70;1.60;;;;;;;20.40;65.86;101557.34;4991799;28;102250;-52
2022/06/16 08:21:44;;;;;;;4.20;1.60;;;;;;;20.40;66.25;101557.34;4995327;28;102652;-52
2022/06/16 08:24:12;;;;;;;2.53;1.75;;;;;;;20.40;65.80;101546.28;4995416;28;102167;-52
2022/06/16 08:26:39;;;;;;;2.10;1.60;;;;;;;20.45;65.41;101547.28;4985459;28;103831;-52
2022/06/16 08:29:08;;;;;;;2.58;2.05;;;;;;;20.45;65.70;101542.59;4988033;28;102346;-52
2022/06/16 08:31:34;;;;;;;;;;;;;;;20.46;65.82;101543.41;4977225;28;101925;-52
2022/06/16 08:34:00;;;;;;;2.08;1.88;;;;;;;20.46;65.54;101537.88;4981700;28;102352;-52
2022/06/16 08:36:29;;;;;;;;;;;;;;;20.47;65.66;101545.03;4981455;28;103864;-52
2022/06/16 08:38:56;;;;;;;1.65;1.52;;;;;;;20.45;65.98;101536.22;4997618;28;102372;-52
2022/06/16 08:41:28;;;;;;;1.77;1.67;;;;;;;20.46;65.80;101540.63;4988137;28;102188;-52
2022/06/16 08:44:07;;;;;;;2.50;1.67;;;;;;;20.46;65.72;101533.16;4996082;28;102006;-52
2022/06/16 08:46:36;;;;;;;1.65;1.55;;;;;;;20.47;65.58;101531.19;4985116;28;104652;-52
2022/06/16 08:49:13;;;;;;;3.90;1.77;;;;;;;20.48;65.37;101530.88;4988558;28;102350;-52
2022/06/16 08:51:51;;;;;;;1.70;1.60;;;;;;;20.50;65.49;101522.31;4988578;28;102244;-52
2022/06/16 08:54:24;;;;;;;;;;;;;;;20.51;65.59;101529.47;4990502;28;102148;-52
2022/06/16 08:56:59;;;;;;;2.15;1.55;;;;;;;20.51;65.60;101529.47;4984721;28;104175;-52
2022/06/16 08:59:34;;;;;;;2.00;1.80;;;;;;;20.51;65.16;101535.00;4987669;28;102080;-53
2022/06/16 09:02:06;;;;;;;1.73;1.50;;;;;;;20.51;65.22;101535.00;4991644;28;102229;-52
2022/06/16 09:04:39;;;;;;;4.03;1.88;;;;;;;20.49;65.28;101531.72;4987307;28;102260;-52
2022/06/16 09:07:18;;;;;;;1.83;1.73;;;;;;;20.50;65.64;101530.59;4988278;28;103881;-52
2022/06/16 09:10:14;;;;;;;2.55;1.77;;;;;;;20.49;65.66;101529.75;4990031;28;102044;-52
2022/06/16 09:13:00;;;;;;;2.00;1.50;;;;;;;20.47;65.68;101523.72;4988903;28;102343;-52
2022/06/16 09:15:34;;;;;;;3.95;1.58;;;;;;;20.48;65.79;101524.53;4986975;28;102578;-52
2022/06/16 09:18:13;;;;;;;1.77;1.50;;;;;;;20.48;65.91;101521.75;4996739;28;104195;-52
2022/06/16 09:20:45;;;;;;;1.98;1.70;;;;;;;20.47;65.71;101532.00;4996865;28;102255;-52
2022/06/16 09:23:30;;;;;;;2.10;1.63;;;;;;;20.48;65.47;101524.53;4992503;28;102392;-52
2022/06/16 09:26:13;;;;;;;2.28;1.80;;;;;;;20.46;65.83;101521.28;4995909;28;102173;-52
2022/06/16 09:28:46;;;;;;;1.80;1.60;;;;;;;20.45;65.95;101525.16;4993516;28;107951;-52
2022/06/16 09:31:18;;;;;;;1.90;1.67;;;;;;;20.44;65.76;101524.34;4989921;28;102002;-52
2022/06/16 09:33:53;;;;;;;1.90;1.70;;;;;;;20.43;66.41;101519.16;4976628;28;102303;-52
2022/06/16 09:36:24;;;;;;;1.65;1.55;;;;;;;20.43;66.45;101521.91;4997333;28;101965;-52
2022/06/16 09:38:56;;;;;;;2.15;1.95;;;;;;;20.41;66.30;101519.44;4989657;28;104162;-52
2022/06/16 09:44:28;;;;;;;2.15;1.60;;;;;;;20.39;66.45;101513.44;4991899;28;102397;-52
2022/06/16 09:46:59;;;;;;;1.60;1.50;;;;;;;20.41;65.87;101511.16;4985700;28;102158;-51
2022/06/16 09:49:31;;;;;;;2.13;1.45;;;;;;;20.41;66.27;101502.88;4985585;28;104285;-52
2022/06/16 09:52:04;;;;;;;2.78;1.67;;;;;;;20.42;65.98;101504.53;4981927;28;103189;-52
2022/06/16 09:54:37;;;;;;;2.22;1.90;;;;;;;20.44;65.96;101512.47;4992047;28;104969;-52
2022/06/16 09:57:08;;;;;;;1.50;1.40;;;;;;;20.43;66.11;101505.31;4975911;28;102241;-52
2022/06/16 09:59:41;;;;;;;1.90;1.58;;;;;;;20.44;65.94;101506.94;4980849;28;103904;-51
2022/06/16 10:02:17;;;;;;;1.83;1.58;;;;;;;20.44;65.43;101506.94;4990746;28;102000;-52
2022/06/16 10:04:44;;;;;;;2.05;1.60;;;;;;;20.44;66.08;101504.19;4984044;28;102600;-52
2022/06/16 10:07:18;;;;;;;1.58;1.40;;;;;;;20.44;66.10;101504.19;4987619;28;102432;-52
2022/06/16 10:09:50;;;;;;;3.05;1.67;;;;;;;20.45;66.15;101498.34;4979909;28;103899;-52
2022/06/16 10:12:23;;;;;;;2.03;1.50;;;;;;;20.45;65.94;101503.03;4985620;28;102235;-52
2022/06/16 10:14:59;;;;;;;2.58;1.65;;;;;;;20.44;66.18;101495.88;4983786;28;102100;-52
2022/06/16 10:17:33;;;;;;;1.95;1.40;;;;;;;20.44;66.25;101498.66;4992738;28;102394;-52
2022/06/16 10:20:01;;;;;;;1.70;1.60;;;;;;;20.46;66.38;101499.16;4985257;28;103932;-52
2022/06/16 10:22:31;;;;;;;1.70;1.40;;;;;;;20.45;66.08;101491.97;4987722;28;102293;-52
2022/06/16 10:25:02;;;;;;;2.20;1.50;;;;;;;20.46;66.14;101499.16;4978972;28;102304;-52
2022/06/16 10:27:34;;;;;;;2.40;1.70;;;;;;;20.46;66.38;101496.41;4976800;28;102130;-52
2022/06/16 10:30:06;;;;;;;1.45;1.35;;;;;;;20.44;66.16;101501.41;4987923;28;104207;-52
2022/06/16 10:32:37;;;;;;;1.60;1.50;;;;;;;20.44;66.64;101505.00;4980758;28;102499;-52
2022/06/16 10:35:07;;;;;;;2.40;1.70;;;;;;;20.44;66.38;101498.66;4985025;28;103995;-52
2022/06/16 10:37:39;;;;;;;3.97;1.50;;;;;;;20.43;66.67;101502.56;4988671;28;102306;-52
2022/06/16 10:40:10;;;;;;;1.65;1.55;;;;;;;20.42;66.25;101495.41;4991182;28;104310;-52
2022/06/16 10:42:41;;;;;;;1.73;1.63;;;;;;;20.42;66.71;101499.00;4987707;28;102112;-52
2022/06/16 10:45:13;;;;;;;2.42;1.73;;;;;;;20.40;66.88;101496.53;4940187;28;1279314;-52
2022/06/16 10:47:48;;;;;;;1.60;1.38;;;;;;;20.39;67.15;101502.38;4987303;28;102176;-51
2022/06/16 10:50:19;;;;;;;2.47;1.80;;;;;;;20.40;67.01;101502.06;4986080;28;104136;-52
2022/06/16 10:52:52;;;;;;;1.45;1.35;;;;;;;20.44;66.53;101501.41;4981052;28;102475;-52
2022/06/16 10:55:21;;;;;;;4.97;1.50;;;;;;;20.45;66.69;101498.34;4986690;28;102215;-52
2022/06/16 10:58:00;;;;;;;1.60;1.50;;;;;;;20.46;66.43;101499.16;4984200;28;102224;-52
2022/06/16 11:00:30;;;;;;;2.30;1.27;;;;;;;20.47;66.15;101498.03;4988359;28;108103;-52
2022/06/16 11:03:05;;;;;;;1.50;1.38;;;;;;;20.48;66.25;101502.41;4991444;28;102099;-52
2022/06/16 11:05:49;;;;;;;2.50;1.45;;;;;;;20.46;66.19;101496.41;4992226;28;102470;-52
2022/06/16 11:08:18;;;;;;;3.90;1.70;;;;;;;20.47;66.12;101495.25;4987087;28;102207;-52
2022/06/16 11:10:52;;;;;;;2.05;1.30;;;;;;;20.47;66.41;101492.50;4985150;28;104047;-52
2022/06/16 11:13:26;;;;;;;1.33;1.23;;;;;;;20.46;66.24;101494.44;4997028;28;102446;-52
2022/06/16 11:15:55;;;;;;;1.60;1.50;;;;;;;20.45;66.15;101495.59;4986472;28;102223;-52
2022/06/16 11:18:29;;;;;;;1.40;1.30;;;;;;;20.45;66.39;101491.97;4986094;28;102938;-51
2022/06/16 11:20:58;;;;;;;2.80;1.40;;;;;;;20.45;66.58;101498.34;4996130;28;103853;-52
2022/06/16 11:23:27;;;;;;;;;;;;;;;20.45;66.43;101508.56;4981500;28;102639;-52
2022/06/16 11:25:59;;;;;;;2.28;1.70;;;;;;;20.43;66.79;101502.56;4998026;28;101997;-52
2022/06/16 11:28:27;;;;;;;3.58;1.73;;;;;;;20.43;66.66;101510.84;4998379;28;102498;-52
2022/06/16 11:30:59;;;;;;;1.63;1.53;;;;;;;20.43;66.73;101510.84;4985455;28;103945;-52
2022/06/16 11:36:21;;;;;;;1.77;1.67;;;;;;;20.42;66.48;101510.03;4983448;28;102152;-52
2022/06/16 11:38:56;;;;;;;1.70;1.50;;;;;;;20.44;66.54;101495.88;4985925;28;102034;-52
2022/06/16 11:41:26;;;;;;;1.92;1.83;;;;;;;20.42;66.50;101493.47;4992669;28;108151;-52
2022/06/16 11:43:59;;;;;;;;;;;;;;;20.44;67.01;101496.69;4997486;28;102261;-53
2022/06/16 11:46:37;;;;;;;1.70;1.60;;;;;;;20.44;66.07;101488.41;4985433;28;102141;-52
2022/06/16 11:49:18;;;;;;;1.67;1.48;;;;;;;20.46;66.24;101496.41;4996974;28;102700;-52
2022/06/16 11:51:56;;;;;;;2.53;2.03;;;;;;;20.45;66.18;101489.22;4993437;28;104089;-52
2022/06/16 11:54:33;;;;;;;1.65;1.50;;;;;;;20.45;66.25;101487.28;4995603;28;102381;-52